createdAt,value
2022-07-30T00:00:45.414Z,21.00
2022-07-30T00:02:18.914Z,20.90
2022-07-30T00:03:51.778Z,21.00
2022-07-30T00:05:24.692Z,20.90
2022-07-30T00:06:59.134Z,20.90
2022-07-30T00:08:32.143Z,20.80
2022-07-30T00:10:05.878Z,20.80
2022-07-30T00:11:38.643Z,20.80
2022-07-30T00:13:14.105Z,20.80
2022-07-30T00:14:47.114Z,20.70
2022-07-30T00:16:19.938Z,20.70
2022-07-30T00:17:51.758Z,20.70
2022-07-30T00:19:24.546Z,20.70
2022-07-30T00:20:59.095Z,20.70
2022-07-30T00:22:33.209Z,20.60
2022-07-30T00:24:06.710Z,20.60
2022-07-30T00:25:39.554Z,20.60
2022-07-30T00:27:14.367Z,20.50
2022-07-30T00:28:47.166Z,20.50
2022-07-30T00:30:19.992Z,20.40
2022-07-30T00:31:52.967Z,20.40
2022-07-30T00:33:25.714Z,20.50
2022-07-30T00:34:58.543Z,20.40
2022-07-30T00:36:31.328Z,20.40
2022-07-30T00:38:05.507Z,20.40
2022-07-30T00:39:38.250Z,20.40
2022-07-30T00:41:11.127Z,20.40
2022-07-30T00:42:46.176Z,20.40
2022-07-30T00:44:17.956Z,20.50
2022-07-30T00:45:50.831Z,20.50
2022-07-30T00:47:24.694Z,20.40
2022-07-30T00:48:57.450Z,20.40
2022-07-30T00:50:30.216Z,20.30
2022-07-30T00:52:03.444Z,20.40
2022-07-30T00:53:37.565Z,20.40
2022-07-30T00:55:13.063Z,20.30
2022-07-30T00:56:45.855Z,20.30
2022-07-30T00:58:18.633Z,20.30
2022-07-30T00:59:50.432Z,20.30
2022-07-30T01:01:23.322Z,20.30
2022-07-30T01:02:56.182Z,20.30
2022-07-30T01:04:27.980Z,20.30
2022-07-30T01:06:00.769Z,20.30
2022-07-30T01:07:34.101Z,20.30
2022-07-30T01:09:08.545Z,20.30
2022-07-30T01:10:41.380Z,20.40
2022-07-30T01:12:16.976Z,20.40
2022-07-30T01:13:49.841Z,20.40
2022-07-30T01:15:22.953Z,20.30
2022-07-30T01:16:55.946Z,20.30
2022-07-30T01:18:51.710Z,20.30
2022-07-30T01:20:26.898Z,20.30
2022-07-30T01:22:09.179Z,20.30
2022-07-30T01:23:47.429Z,20.30
2022-07-30T01:25:30.964Z,20.30
2022-07-30T01:27:06.155Z,20.30
2022-07-30T01:28:43.169Z,20.30
2022-07-30T01:30:21.888Z,20.30
2022-07-30T01:31:59.863Z,20.30
2022-07-30T01:33:35.101Z,20.30
2022-07-30T01:35:10.003Z,20.30
2022-07-30T01:36:45.915Z,20.30
2022-07-30T01:38:22.883Z,20.20
2022-07-30T01:39:56.507Z,20.10
2022-07-30T01:41:29.699Z,20.10
2022-07-30T01:43:05.372Z,20.00
2022-07-30T01:44:43.639Z,19.90
2022-07-30T01:46:18.511Z,19.80
2022-07-30T01:47:54.068Z,19.80
2022-07-30T01:49:28.370Z,19.70
2022-07-30T01:51:05.507Z,19.60
2022-07-30T01:52:39.336Z,19.60
2022-07-30T01:54:13.506Z,19.60
2022-07-30T01:55:47.486Z,19.60
2022-07-30T01:57:21.905Z,19.70
2022-07-30T01:58:58.020Z,19.70
2022-07-30T02:00:32.034Z,19.70
2022-07-30T02:02:04.806Z,19.70
2022-07-30T02:03:38.642Z,19.70
2022-07-30T02:05:11.519Z,19.60
2022-07-30T02:06:50.791Z,19.60
2022-07-30T02:08:29.387Z,19.50
2022-07-30T02:10:06.561Z,19.50
2022-07-30T02:12:02.054Z,19.40
2022-07-30T02:13:39.240Z,19.40
2022-07-30T02:15:18.608Z,19.30
2022-07-30T02:16:54.366Z,19.30
2022-07-30T02:18:32.443Z,19.30
2022-07-30T02:20:09.719Z,19.20
2022-07-30T02:21:50.603Z,19.20
2022-07-30T02:23:25.178Z,19.20
2022-07-30T02:25:01.774Z,19.20
2022-07-30T02:26:37.946Z,19.20
2022-07-30T02:28:13.727Z,19.30
2022-07-30T02:29:47.435Z,19.30
2022-07-30T02:31:25.757Z,19.30
2022-07-30T02:33:04.305Z,19.30
2022-07-30T02:34:40.068Z,19.30
2022-07-30T02:36:14.435Z,19.40
2022-07-30T02:37:52.066Z,19.40
2022-07-30T02:39:27.033Z,19.30
2022-07-30T02:41:02.591Z,19.40
2022-07-30T02:42:36.670Z,19.30
2022-07-30T02:44:10.356Z,19.40
2022-07-30T02:45:44.819Z,19.40
2022-07-30T02:47:20.487Z,19.40
2022-07-30T02:48:55.559Z,19.40
2022-07-30T02:50:29.301Z,19.40
2022-07-30T02:52:02.743Z,19.30
2022-07-30T02:53:36.304Z,19.30
2022-07-30T02:55:10.597Z,19.40
2022-07-30T02:56:44.192Z,19.40
2022-07-30T02:58:18.196Z,19.40
2022-07-30T02:59:52.955Z,19.30
2022-07-30T03:01:27.360Z,19.40
2022-07-30T03:03:02.364Z,19.30
2022-07-30T03:04:36.588Z,19.30
2022-07-30T03:06:10.967Z,19.30
2022-07-30T03:07:44.645Z,19.30
2022-07-30T03:09:19.384Z,19.30
2022-07-30T03:10:54.663Z,19.30
2022-07-30T03:12:31.071Z,19.30
2022-07-30T03:14:04.134Z,19.20
2022-07-30T03:15:39.266Z,19.20
2022-07-30T03:17:16.858Z,19.20
2022-07-30T03:18:53.562Z,19.20
2022-07-30T03:20:31.587Z,19.20
2022-07-30T03:22:07.787Z,19.20
2022-07-30T03:23:41.706Z,19.20
2022-07-30T03:25:17.027Z,19.20
2022-07-30T03:26:52.247Z,19.20
2022-07-30T03:28:25.909Z,19.20
2022-07-30T03:29:59.187Z,19.00
2022-07-30T03:31:36.537Z,19.10
2022-07-30T03:33:12.135Z,19.10
2022-07-30T03:34:48.122Z,19.10
2022-07-30T03:36:21.126Z,19.00
2022-07-30T03:37:55.191Z,19.00
2022-07-30T03:39:29.424Z,19.00
2022-07-30T03:41:02.491Z,19.00
2022-07-30T03:42:36.514Z,19.00
2022-07-30T03:44:10.091Z,19.00
2022-07-30T03:45:45.182Z,19.00
2022-07-30T03:47:20.203Z,19.00
2022-07-30T03:48:53.433Z,19.00
2022-07-30T03:50:28.835Z,19.00
2022-07-30T03:52:02.810Z,19.00
2022-07-30T03:53:35.843Z,19.00
2022-07-30T03:55:10.723Z,18.90
2022-07-30T03:56:44.120Z,18.90
2022-07-30T03:58:16.854Z,18.90
2022-07-30T03:59:51.596Z,18.90
2022-07-30T04:01:26.383Z,18.90
2022-07-30T04:02:59.242Z,18.80
2022-07-30T04:04:32.378Z,18.90
2022-07-30T04:06:06.724Z,18.80
2022-07-30T04:07:40.635Z,18.70
2022-07-30T04:09:17.731Z,18.70
2022-07-30T04:10:51.171Z,18.60
2022-07-30T04:12:23.879Z,18.60
2022-07-30T04:13:56.616Z,18.60
2022-07-30T04:16:37.303Z,18.50
2022-07-30T04:17:25.916Z,18.50
2022-07-30T04:19:01.026Z,18.60
2022-07-30T04:20:40.679Z,18.60
2022-07-30T04:22:17.878Z,18.60
2022-07-30T04:24:02.187Z,18.60
2022-07-30T04:25:38.438Z,18.60
2022-07-30T04:27:11.605Z,18.60
2022-07-30T04:28:44.738Z,18.60
2022-07-30T04:30:16.818Z,18.60
2022-07-30T04:31:49.673Z,18.60
2022-07-30T04:33:22.498Z,18.60
2022-07-30T04:34:56.015Z,18.70
2022-07-30T04:36:28.857Z,18.60
2022-07-30T04:38:04.108Z,18.60
2022-07-30T04:39:36.857Z,18.60
2022-07-30T04:41:09.603Z,18.60
2022-07-30T04:42:42.355Z,18.60
2022-07-30T04:44:14.170Z,18.60
2022-07-30T04:45:46.936Z,18.60
2022-07-30T04:47:19.270Z,18.50
2022-07-30T04:48:52.147Z,18.50
2022-07-30T04:50:27.841Z,18.40
2022-07-30T04:52:01.120Z,18.40
2022-07-30T04:53:36.227Z,18.50
2022-07-30T04:55:11.776Z,18.50
2022-07-30T04:56:52.553Z,18.40
2022-07-30T04:58:28.353Z,18.40
2022-07-30T05:00:01.308Z,18.40
2022-07-30T05:01:40.617Z,18.40
2022-07-30T05:03:15.277Z,18.40
2022-07-30T05:04:49.831Z,18.40
2022-07-30T05:06:23.620Z,18.40
2022-07-30T05:07:56.787Z,18.40
2022-07-30T05:09:31.925Z,18.50
2022-07-30T05:11:04.812Z,18.40
2022-07-30T05:12:38.399Z,18.40
2022-07-30T05:14:11.154Z,18.50
2022-07-30T05:15:45.394Z,18.50
2022-07-30T05:17:18.182Z,18.50
2022-07-30T05:18:51.254Z,18.60
2022-07-30T05:20:23.982Z,18.60
2022-07-30T05:21:57.703Z,18.60
2022-07-30T05:23:30.506Z,18.60
2022-07-30T05:25:05.296Z,18.70
2022-07-30T05:26:49.054Z,18.70
2022-07-30T05:28:22.226Z,18.70
2022-07-30T05:29:55.531Z,18.60
2022-07-30T05:31:29.896Z,18.70
2022-07-30T05:33:15.639Z,18.70
2022-07-30T05:34:49.842Z,18.70
2022-07-30T05:36:23.106Z,18.80
2022-07-30T05:37:55.883Z,18.80
2022-07-30T05:39:28.748Z,18.90
2022-07-30T05:41:02.849Z,18.90
2022-07-30T05:42:35.630Z,18.90
2022-07-30T05:44:08.407Z,18.90
2022-07-30T05:45:41.154Z,18.90
2022-07-30T05:47:13.924Z,19.00
2022-07-30T05:48:45.774Z,19.00
2022-07-30T05:50:18.557Z,19.00
2022-07-30T05:51:50.550Z,19.10
2022-07-30T05:53:23.758Z,19.10
2022-07-30T05:54:56.595Z,19.10
2022-07-30T05:56:30.759Z,19.10
2022-07-30T05:58:03.584Z,19.10
2022-07-30T05:59:36.332Z,19.10
2022-07-30T06:01:09.181Z,19.20
2022-07-30T06:02:41.011Z,19.20
2022-07-30T06:04:13.829Z,19.20
2022-07-30T06:05:46.635Z,19.20
2022-07-30T06:07:19.450Z,19.30
2022-07-30T06:08:52.200Z,19.30
2022-07-30T06:10:25.147Z,19.40
2022-07-30T06:11:59.231Z,19.40
2022-07-30T06:13:31.991Z,19.50
2022-07-30T06:15:05.643Z,19.50
2022-07-30T06:16:38.426Z,19.60
2022-07-30T06:18:11.203Z,19.60
2022-07-30T06:19:42.988Z,19.60
2022-07-30T06:21:15.742Z,19.70
2022-07-30T06:22:47.565Z,19.70
2022-07-30T06:24:20.332Z,19.80
2022-07-30T06:25:55.656Z,19.80
2022-07-30T06:27:31.986Z,19.90
2022-07-30T06:29:05.812Z,19.90
2022-07-30T06:30:38.606Z,19.90
2022-07-30T06:32:11.448Z,20.00
2022-07-30T06:33:44.317Z,20.10
2022-07-30T06:35:17.064Z,20.10
2022-07-30T06:36:50.262Z,20.20
2022-07-30T06:38:22.019Z,20.20
2022-07-30T06:39:57.781Z,20.30
2022-07-30T06:41:31.236Z,20.40
2022-07-30T06:43:04.382Z,20.50
2022-07-30T06:44:37.119Z,20.70
2022-07-30T06:46:09.908Z,20.80
2022-07-30T06:47:42.670Z,21.00
2022-07-30T06:49:15.522Z,21.20
2022-07-30T06:50:48.330Z,21.40
2022-07-30T06:52:21.308Z,21.60
2022-07-30T06:53:53.163Z,21.80
2022-07-30T06:55:26.127Z,22.00
2022-07-30T06:56:59.134Z,22.10
2022-07-30T06:58:34.130Z,22.20
2022-07-30T07:00:08.430Z,22.30
2022-07-30T07:01:41.220Z,22.40
2022-07-30T07:03:13.052Z,22.60
2022-07-30T07:04:45.838Z,22.70
2022-07-30T07:06:19.375Z,22.70
2022-07-30T07:07:59.201Z,22.80
2022-07-30T07:09:32.678Z,22.80
2022-07-30T07:11:10.866Z,22.80
2022-07-30T07:12:43.763Z,22.80
2022-07-30T07:14:17.967Z,22.80
2022-07-30T07:15:50.896Z,22.80
2022-07-30T07:17:23.825Z,22.80
2022-07-30T07:18:56.730Z,22.90
2022-07-30T07:20:29.534Z,22.80
2022-07-30T07:22:02.299Z,22.90
2022-07-30T07:23:41.523Z,22.90
2022-07-30T07:25:15.890Z,22.90
2022-07-30T07:26:48.719Z,23.00
2022-07-30T07:28:21.512Z,23.10
2022-07-30T07:30:08.811Z,23.40
2022-07-30T07:32:06.111Z,23.60
2022-07-30T07:33:34.631Z,23.80
2022-07-30T07:35:08.283Z,24.00
2022-07-30T07:36:41.128Z,24.20
2022-07-30T07:38:13.875Z,24.40
2022-07-30T07:39:46.623Z,24.60
2022-07-30T07:41:19.398Z,24.80
2022-07-30T07:42:52.244Z,25.00
2022-07-30T07:44:25.170Z,25.20
2022-07-30T07:45:59.447Z,25.30
2022-07-30T07:47:32.263Z,25.60
2022-07-30T07:49:04.401Z,25.90
2022-07-30T07:50:37.427Z,26.20
2022-07-30T07:52:10.234Z,26.40
2022-07-30T07:53:42.976Z,26.60
2022-07-30T07:55:15.747Z,26.90
2022-07-30T07:56:51.470Z,27.10
2022-07-30T07:58:26.401Z,27.30
2022-07-30T07:59:59.454Z,27.50
2022-07-30T08:01:34.247Z,27.60
2022-07-30T08:03:07.119Z,27.80
2022-07-30T08:04:40.231Z,27.90
2022-07-30T08:06:15.099Z,28.20
2022-07-30T08:07:48.086Z,28.40
2022-07-30T08:09:20.843Z,28.60
2022-07-30T08:10:53.623Z,28.80
2022-07-30T08:12:27.215Z,28.90
2022-07-30T08:13:59.994Z,29.10
2022-07-30T08:15:31.897Z,29.20
2022-07-30T08:17:06.529Z,29.20
2022-07-30T08:18:39.598Z,29.30
2022-07-30T08:20:13.819Z,29.40
2022-07-30T08:21:46.580Z,29.50
2022-07-30T08:23:22.083Z,29.60
2022-07-30T08:24:55.518Z,29.80
2022-07-30T08:26:28.255Z,29.80
2022-07-30T08:28:03.065Z,29.90
2022-07-30T08:29:36.263Z,30.00
2022-07-30T08:31:09.064Z,30.10
2022-07-30T08:32:43.159Z,30.30
2022-07-30T08:34:15.971Z,30.40
2022-07-30T08:35:52.860Z,30.60
2022-07-30T08:37:32.019Z,30.70
2022-07-30T08:39:04.898Z,30.90
2022-07-30T08:40:37.716Z,31.00
2022-07-30T08:42:10.789Z,31.10
2022-07-30T08:43:43.842Z,31.20
2022-07-30T08:45:18.682Z,31.30
2022-07-30T08:46:56.123Z,31.50
2022-07-30T08:48:31.147Z,31.70
2022-07-30T08:50:05.399Z,31.90
2022-07-30T08:51:38.289Z,32.00
2022-07-30T08:53:11.334Z,32.10
2022-07-30T08:54:45.082Z,32.20
2022-07-30T08:56:18.359Z,32.30
2022-07-30T08:57:51.971Z,32.30
2022-07-30T08:59:25.474Z,32.30
2022-07-30T09:01:18.308Z,32.20
2022-07-30T09:02:51.083Z,32.10
2022-07-30T09:04:24.264Z,32.00
2022-07-30T09:05:57.987Z,31.80
2022-07-30T09:07:32.712Z,31.80
2022-07-30T09:09:05.504Z,31.90
2022-07-30T09:10:37.352Z,31.80
2022-07-30T09:12:34.842Z,31.70
2022-07-30T09:14:12.452Z,31.60
2022-07-30T09:15:45.256Z,31.40
2022-07-30T09:17:18.073Z,31.20
2022-07-30T09:18:52.282Z,31.10
2022-07-30T09:20:28.631Z,31.10
2022-07-30T09:22:02.831Z,31.10
2022-07-30T09:23:35.615Z,31.10
2022-07-30T09:25:09.416Z,31.20
2022-07-30T09:26:55.568Z,31.20
2022-07-30T09:28:30.427Z,31.20
2022-07-30T09:30:08.513Z,31.10
2022-07-30T09:31:54.736Z,31.00
2022-07-30T09:33:38.691Z,30.80
2022-07-30T09:35:14.727Z,30.90
2022-07-30T09:36:48.872Z,30.90
2022-07-30T09:38:21.963Z,30.90
2022-07-30T09:39:59.229Z,30.90
2022-07-30T09:41:39.271Z,30.90
2022-07-30T09:43:13.147Z,30.90
2022-07-30T09:44:46.619Z,30.90
2022-07-30T09:46:19.532Z,30.90
2022-07-30T09:47:52.488Z,31.00
2022-07-30T09:49:27.120Z,31.10
2022-07-30T09:50:59.967Z,31.20
2022-07-30T09:52:36.395Z,31.20
2022-07-30T09:54:16.838Z,31.20
2022-07-30T09:55:50.724Z,31.20
2022-07-30T09:57:27.651Z,31.30
2022-07-30T09:59:00.792Z,31.40
2022-07-30T10:00:36.732Z,31.50
2022-07-30T10:02:11.116Z,31.50
2022-07-30T10:03:44.180Z,31.60
2022-07-30T10:05:20.562Z,31.70
2022-07-30T10:06:53.700Z,31.80
2022-07-30T10:08:42.494Z,31.90
2022-07-30T10:10:20.699Z,31.80
2022-07-30T10:11:55.255Z,31.80
2022-07-30T10:13:29.568Z,31.70
2022-07-30T10:15:07.275Z,31.90
2022-07-30T10:16:40.292Z,31.90
2022-07-30T10:18:13.879Z,31.90
2022-07-30T10:19:49.662Z,31.70
2022-07-30T10:21:22.516Z,31.60
2022-07-30T10:22:59.065Z,31.50
2022-07-30T10:24:36.251Z,31.40
2022-07-30T10:26:09.565Z,31.30
2022-07-30T10:27:42.658Z,31.10
2022-07-30T10:29:17.885Z,30.90
2022-07-30T10:30:52.113Z,30.70
2022-07-30T10:32:27.454Z,30.60
2022-07-30T10:34:03.962Z,30.60
2022-07-30T10:35:38.434Z,30.60
2022-07-30T10:37:12.979Z,30.60
2022-07-30T10:38:46.985Z,30.70
2022-07-30T10:40:31.661Z,30.70
2022-07-30T10:42:17.605Z,30.80
2022-07-30T10:44:21.677Z,30.90
2022-07-30T10:46:02.696Z,30.80
2022-07-30T10:47:44.921Z,30.70
2022-07-30T10:49:22.215Z,30.70
2022-07-30T10:50:57.651Z,30.70
2022-07-30T10:52:44.445Z,30.70
2022-07-30T10:54:39.865Z,30.70
2022-07-30T10:56:18.554Z,30.80
2022-07-30T10:58:00.486Z,30.90
2022-07-30T11:00:06.891Z,30.80
2022-07-30T11:02:08.943Z,30.70
2022-07-30T11:03:45.002Z,30.80
2022-07-30T11:05:43.935Z,30.70
2022-07-30T11:07:31.326Z,30.70
2022-07-30T11:09:41.056Z,30.70
2022-07-30T11:12:01.866Z,30.70
2022-07-30T11:13:54.187Z,30.70
2022-07-30T11:15:55.672Z,30.50
2022-07-30T11:18:01.833Z,30.60
2022-07-30T11:19:53.353Z,30.60
2022-07-30T11:21:27.460Z,30.60
2022-07-30T11:23:14.240Z,30.50
2022-07-30T11:24:48.945Z,30.40
2022-07-30T11:26:51.027Z,30.30
2022-07-30T11:28:38.371Z,30.20
2022-07-30T11:30:34.062Z,30.20
2022-07-30T11:32:32.850Z,30.00
2022-07-30T11:34:27.591Z,30.00
2022-07-30T11:36:10.618Z,30.00
2022-07-30T11:38:04.641Z,30.00
2022-07-30T11:40:08.287Z,29.90
2022-07-30T11:41:41.119Z,29.90
2022-07-30T11:43:34.661Z,29.90
2022-07-30T11:45:29.610Z,29.80
2022-07-30T11:47:03.979Z,29.80
2022-07-30T11:48:37.763Z,29.80
2022-07-30T11:50:17.714Z,29.80
2022-07-30T11:51:50.947Z,29.90
2022-07-30T11:53:23.761Z,29.90
2022-07-30T11:54:56.566Z,30.00
2022-07-30T11:56:29.424Z,30.00
2022-07-30T11:58:04.902Z,30.10
2022-07-30T11:59:57.920Z,30.10
2022-07-30T12:01:33.292Z,30.00
2022-07-30T12:03:11.361Z,30.00
2022-07-30T12:04:44.718Z,29.90
2022-07-30T12:06:18.006Z,29.90
2022-07-30T12:07:53.407Z,29.80
2022-07-30T12:09:28.804Z,29.80
2022-07-30T12:11:02.732Z,29.80
2022-07-30T12:12:35.539Z,29.80
2022-07-30T12:14:08.506Z,29.80
2022-07-30T12:15:44.710Z,29.90
2022-07-30T12:17:17.716Z,29.80
2022-07-30T12:18:50.590Z,29.90
2022-07-30T12:20:23.461Z,29.90
2022-07-30T12:22:00.515Z,29.90
2022-07-30T12:23:33.343Z,29.90
2022-07-30T12:25:08.994Z,29.90
2022-07-30T12:26:42.291Z,29.80
2022-07-30T12:28:21.595Z,29.80
2022-07-30T12:29:54.505Z,29.80
2022-07-30T12:31:29.146Z,29.80
2022-07-30T12:33:02.714Z,29.80
2022-07-30T12:34:35.489Z,29.90
2022-07-30T12:36:09.983Z,29.90
2022-07-30T12:38:02.282Z,29.80
2022-07-30T12:39:35.075Z,29.90
2022-07-30T12:41:08.012Z,29.90
2022-07-30T12:42:51.825Z,29.90
2022-07-30T12:44:35.709Z,29.90
2022-07-30T12:46:11.921Z,29.90
2022-07-30T12:47:51.407Z,29.90
2022-07-30T12:49:36.587Z,29.90
2022-07-30T12:51:18.734Z,29.90
2022-07-30T12:52:52.939Z,29.90
2022-07-30T12:54:25.980Z,29.90
2022-07-30T12:56:11.896Z,29.80
2022-07-30T12:58:02.892Z,29.80
2022-07-30T12:59:40.496Z,29.80
2022-07-30T13:01:14.093Z,29.80
2022-07-30T13:02:48.522Z,29.90
2022-07-30T13:04:21.521Z,29.90
2022-07-30T13:05:55.971Z,29.90
2022-07-30T13:07:32.066Z,29.90
2022-07-30T13:09:06.026Z,29.90
2022-07-30T13:10:38.950Z,29.90
2022-07-30T13:12:14.132Z,29.90
2022-07-30T13:13:47.308Z,29.80
2022-07-30T13:15:21.216Z,29.80
2022-07-30T13:16:54.823Z,29.80
2022-07-30T13:18:29.652Z,29.80
2022-07-30T13:20:02.622Z,29.80
2022-07-30T13:21:35.451Z,29.80
2022-07-30T13:23:08.211Z,29.80
2022-07-30T13:24:41.004Z,29.70
2022-07-30T13:26:13.759Z,29.70
2022-07-30T13:27:46.600Z,29.70
2022-07-30T13:29:19.375Z,29.70
2022-07-30T13:30:51.813Z,29.60
2022-07-30T13:32:24.591Z,29.60
2022-07-30T13:33:58.780Z,29.70
2022-07-30T13:35:31.535Z,29.70
2022-07-30T13:37:04.723Z,29.70
2022-07-30T13:38:37.762Z,29.70
2022-07-30T13:40:11.551Z,29.80
2022-07-30T13:41:44.531Z,29.70
2022-07-30T13:43:17.329Z,29.80
2022-07-30T13:44:50.876Z,29.80
2022-07-30T13:46:23.602Z,29.80
2022-07-30T13:47:56.843Z,29.80
2022-07-30T13:49:30.983Z,29.90
2022-07-30T13:51:05.623Z,29.80
2022-07-30T13:52:38.382Z,29.80
2022-07-30T13:54:12.570Z,29.80
2022-07-30T13:55:46.891Z,29.70
2022-07-30T13:57:19.668Z,29.80
2022-07-30T13:58:52.563Z,29.70
2022-07-30T14:00:25.589Z,29.70
2022-07-30T14:01:58.460Z,29.70
2022-07-30T14:03:31.284Z,29.70
2022-07-30T14:05:07.042Z,29.70
2022-07-30T14:06:40.245Z,29.70
2022-07-30T14:08:13.299Z,29.70
2022-07-30T14:09:47.701Z,29.70
2022-07-30T14:11:22.390Z,29.60
2022-07-30T14:12:55.275Z,29.70
2022-07-30T14:14:28.274Z,29.70
2022-07-30T14:16:01.474Z,29.70
2022-07-30T14:17:34.310Z,29.70
2022-07-30T14:19:07.506Z,29.70
2022-07-30T14:20:43.636Z,29.70
2022-07-30T14:22:19.591Z,29.70
2022-07-30T14:23:52.336Z,29.70
2022-07-30T14:25:25.457Z,29.70
2022-07-30T14:26:58.599Z,29.70
2022-07-30T14:28:31.523Z,29.70
2022-07-30T14:30:06.348Z,29.70
2022-07-30T14:31:40.520Z,29.70
2022-07-30T14:33:13.314Z,29.70
2022-07-30T14:34:49.430Z,29.60
2022-07-30T14:36:25.508Z,29.60
2022-07-30T14:37:58.324Z,29.60
2022-07-30T14:39:31.135Z,29.60
2022-07-30T14:41:03.890Z,29.60
2022-07-30T14:42:36.861Z,29.70
2022-07-30T14:44:12.088Z,29.70
2022-07-30T14:45:44.991Z,29.60
2022-07-30T14:47:17.860Z,29.60
2022-07-30T14:48:50.922Z,29.60
2022-07-30T14:50:23.823Z,29.60
2022-07-30T14:51:58.298Z,29.50
2022-07-30T14:53:31.048Z,29.50
2022-07-30T14:55:04.132Z,29.50
2022-07-30T14:56:40.091Z,29.50
2022-07-30T14:58:12.886Z,29.50
2022-07-30T14:59:45.754Z,29.50
2022-07-30T15:01:18.724Z,29.40
2022-07-30T15:02:51.482Z,29.30
2022-07-30T15:04:24.277Z,29.30
2022-07-30T15:05:57.087Z,29.30
2022-07-30T15:07:32.466Z,29.30
2022-07-30T15:09:07.949Z,29.30
2022-07-30T15:10:41.127Z,29.30
2022-07-30T15:12:23.604Z,29.30
2022-07-30T15:13:59.847Z,29.30
2022-07-30T15:15:38.145Z,29.40
2022-07-30T15:17:11.170Z,29.40
2022-07-30T15:18:43.935Z,29.40
2022-07-30T15:20:16.722Z,29.50
2022-07-30T15:21:49.820Z,29.50
2022-07-30T15:23:24.046Z,29.50
2022-07-30T15:24:56.834Z,29.50
2022-07-30T15:26:29.884Z,29.50
2022-07-30T15:28:02.667Z,29.50
2022-07-30T15:29:35.487Z,29.50
2022-07-30T15:31:08.375Z,29.50
2022-07-30T15:32:41.123Z,29.50
2022-07-30T15:34:13.902Z,29.50
2022-07-30T15:35:46.737Z,29.50
2022-07-30T15:37:19.591Z,29.50
2022-07-30T15:38:53.699Z,29.60
2022-07-30T15:40:26.656Z,29.60
2022-07-30T15:42:00.250Z,29.60
2022-07-30T15:43:33.401Z,29.60
2022-07-30T15:45:17.163Z,29.70
2022-07-30T15:46:50.304Z,29.80
2022-07-30T15:48:24.836Z,29.80
2022-07-30T15:49:59.904Z,29.90
2022-07-30T15:51:33.192Z,29.90
2022-07-30T15:53:09.728Z,29.90
2022-07-30T15:54:45.348Z,29.90
2022-07-30T15:56:18.503Z,29.80
2022-07-30T15:57:51.256Z,29.90
2022-07-30T15:59:24.012Z,29.90
2022-07-30T16:00:57.201Z,29.90
2022-07-30T16:02:30.039Z,29.90
2022-07-30T16:04:02.855Z,29.80
2022-07-30T16:05:52.288Z,29.80
2022-07-30T16:07:25.606Z,29.80
2022-07-30T16:08:58.405Z,29.90
2022-07-30T16:10:34.453Z,29.80
2022-07-30T16:12:08.392Z,29.80
2022-07-30T16:13:41.188Z,29.90
2022-07-30T16:15:14.030Z,29.80
2022-07-30T16:16:49.172Z,29.70
2022-07-30T16:18:21.979Z,29.70
2022-07-30T16:19:54.751Z,29.60
2022-07-30T16:21:27.633Z,29.60
2022-07-30T16:23:00.591Z,29.50
2022-07-30T16:24:33.548Z,29.50
2022-07-30T16:26:07.650Z,29.50
2022-07-30T16:27:40.419Z,29.50
2022-07-30T16:29:14.027Z,29.50
2022-07-30T16:30:50.759Z,29.50
2022-07-30T16:32:24.463Z,29.50
2022-07-30T16:33:57.251Z,29.40
2022-07-30T16:35:30.016Z,29.40
2022-07-30T16:37:03.872Z,29.40
2022-07-30T16:38:37.281Z,29.40
2022-07-30T16:40:11.489Z,29.30
2022-07-30T16:41:45.621Z,29.30
2022-07-30T16:43:19.513Z,29.10
2022-07-30T16:44:52.767Z,29.10
2022-07-30T16:46:25.552Z,29.10
2022-07-30T16:47:58.564Z,29.10
2022-07-30T16:49:31.359Z,29.10
2022-07-30T16:51:04.507Z,29.10
2022-07-30T16:52:37.295Z,29.10
2022-07-30T16:54:10.048Z,29.10
2022-07-30T16:55:43.175Z,29.00
2022-07-30T16:57:17.422Z,29.00
2022-07-30T16:58:50.270Z,29.00
2022-07-30T17:00:23.017Z,29.00
2022-07-30T17:01:55.840Z,28.90
2022-07-30T17:03:28.663Z,28.90
2022-07-30T17:05:01.499Z,28.90
2022-07-30T17:06:35.435Z,28.90
2022-07-30T17:08:08.232Z,28.90
2022-07-30T17:09:41.204Z,28.90
2022-07-30T17:11:45.909Z,28.80
2022-07-30T17:13:08.051Z,28.80
2022-07-30T17:14:41.313Z,28.80
2022-07-30T17:16:14.228Z,28.70
2022-07-30T17:17:47.279Z,28.70
2022-07-30T17:19:22.419Z,28.70
2022-07-30T17:20:55.820Z,28.70
2022-07-30T17:22:28.895Z,28.60
2022-07-30T17:24:01.641Z,28.60
2022-07-30T17:25:34.495Z,28.50
2022-07-30T17:27:07.311Z,28.40
2022-07-30T17:28:41.360Z,28.40
2022-07-30T17:30:14.216Z,28.40
2022-07-30T17:31:47.286Z,28.40
2022-07-30T17:33:20.071Z,28.30
2022-07-30T17:34:52.838Z,28.30
2022-07-30T17:36:25.591Z,28.20
2022-07-30T17:37:58.407Z,28.20
2022-07-30T17:40:18.841Z,28.20
2022-07-30T17:41:24.008Z,28.20
2022-07-30T17:43:02.898Z,28.20
2022-07-30T17:44:37.003Z,28.10
2022-07-30T17:46:09.791Z,28.10
2022-07-30T17:47:42.602Z,28.10
2022-07-30T17:49:15.426Z,28.00
2022-07-30T17:50:48.594Z,28.00
2022-07-30T17:52:26.398Z,28.00
2022-07-30T17:53:59.656Z,27.90
2022-07-30T17:55:34.763Z,27.90
2022-07-30T17:57:07.744Z,27.80
2022-07-30T17:58:40.531Z,27.70
2022-07-30T18:00:15.414Z,27.70
2022-07-30T18:01:48.207Z,27.70
2022-07-30T18:03:20.988Z,27.60
2022-07-30T18:04:56.390Z,27.60
2022-07-30T18:06:29.656Z,27.60
2022-07-30T18:08:02.403Z,27.50
2022-07-30T18:09:39.609Z,27.50
2022-07-30T18:11:13.947Z,27.50
2022-07-30T18:12:49.190Z,27.50
2022-07-30T18:14:23.880Z,27.40
2022-07-30T18:15:58.085Z,27.40
2022-07-30T18:17:31.288Z,27.40
2022-07-30T18:19:04.371Z,27.30
2022-07-30T18:20:37.210Z,27.30
2022-07-30T18:22:22.240Z,27.30
2022-07-30T18:24:02.466Z,27.20
2022-07-30T18:25:51.755Z,27.20
2022-07-30T18:27:25.923Z,27.10
2022-07-30T18:28:58.676Z,27.10
2022-07-30T18:30:31.694Z,27.10
2022-07-30T18:32:09.640Z,27.10
2022-07-30T18:33:42.422Z,27.10
2022-07-30T18:35:15.860Z,27.10
2022-07-30T18:36:51.040Z,27.10
2022-07-30T18:38:23.831Z,27.10
2022-07-30T18:39:56.626Z,27.00
2022-07-30T18:41:30.074Z,27.00
2022-07-30T18:43:03.819Z,27.00
2022-07-30T18:44:36.607Z,26.90
2022-07-30T18:46:09.422Z,26.90
2022-07-30T18:47:45.615Z,26.80
2022-07-30T18:49:36.121Z,26.80
2022-07-30T18:51:13.906Z,26.80
2022-07-30T18:52:46.972Z,26.80
2022-07-30T18:54:19.750Z,26.70
2022-07-30T18:55:52.763Z,26.70
2022-07-30T18:57:25.539Z,26.70
2022-07-30T18:58:58.307Z,26.70
2022-07-30T19:00:35.530Z,26.70
2022-07-30T19:02:08.837Z,26.60
2022-07-30T19:03:42.947Z,26.60
2022-07-30T19:05:15.687Z,26.50
2022-07-30T19:06:48.530Z,26.50
2022-07-30T19:08:21.552Z,26.40
2022-07-30T19:09:55.642Z,26.20
2022-07-30T19:11:28.398Z,26.20
2022-07-30T19:13:01.433Z,26.20
2022-07-30T19:14:34.486Z,26.10
2022-07-30T19:16:07.636Z,26.00
2022-07-30T19:17:45.348Z,26.00
2022-07-30T19:19:20.951Z,25.90
2022-07-30T19:20:53.734Z,25.90
2022-07-30T19:22:29.539Z,25.90
2022-07-30T19:24:03.690Z,25.80
2022-07-30T19:25:39.115Z,25.70
2022-07-30T19:27:14.301Z,25.60
2022-07-30T19:28:47.292Z,25.60
2022-07-30T19:30:20.133Z,25.50
2022-07-30T19:31:52.891Z,25.50
2022-07-30T19:33:25.927Z,25.40
2022-07-30T19:34:59.983Z,25.30
2022-07-30T19:36:33.477Z,25.30
2022-07-30T19:38:07.102Z,25.20
2022-07-30T19:41:40.309Z,25.10
2022-07-30T19:43:13.135Z,25.00
2022-07-30T19:44:46.208Z,25.00
2022-07-30T19:46:20.591Z,25.00
2022-07-30T19:47:57.387Z,25.00
2022-07-30T19:49:30.261Z,25.00
2022-07-30T19:51:05.532Z,25.00
2022-07-30T19:52:51.413Z,24.90
2022-07-30T19:54:24.726Z,24.90
2022-07-30T19:55:58.059Z,24.80
2022-07-30T19:57:52.917Z,24.80
2022-07-30T19:59:45.765Z,24.80
2022-07-30T20:01:17.602Z,24.80
2022-07-30T20:02:51.124Z,24.70
2022-07-30T20:04:23.925Z,24.70
2022-07-30T20:05:59.691Z,24.70
2022-07-30T20:07:34.064Z,24.70
2022-07-30T20:09:12.566Z,24.70
2022-07-30T20:10:47.218Z,24.70
2022-07-30T20:12:19.954Z,24.70
2022-07-30T20:13:57.171Z,24.70
2022-07-30T20:15:30.220Z,24.80
2022-07-30T20:17:03.543Z,24.70
2022-07-30T20:18:36.284Z,24.70
2022-07-30T20:20:09.930Z,24.80
2022-07-30T20:21:55.885Z,24.80
2022-07-30T20:23:31.582Z,24.70
2022-07-30T20:25:05.237Z,24.70
2022-07-30T20:26:39.751Z,24.70
2022-07-30T20:28:14.872Z,24.70
2022-07-30T20:29:51.199Z,24.70
2022-07-30T20:31:23.956Z,24.70